createdAt,value
2022-11-25T00:01:30.402Z,55.06
2022-11-25T00:03:02.287Z,54.79
2022-11-25T00:04:37.213Z,55.28
2022-11-25T00:06:10.108Z,55.17
2022-11-25T00:07:42.321Z,55.33
2022-11-25T00:09:14.109Z,55.31
2022-11-25T00:10:45.972Z,54.83
2022-11-25T00:12:17.822Z,54.65
2022-11-25T00:13:49.512Z,55.13
2022-11-25T00:15:21.038Z,54.91
2022-11-25T00:16:52.545Z,55.39
2022-11-25T00:18:24.444Z,55.49
2022-11-25T00:19:56.355Z,54.83
2022-11-25T00:21:29.575Z,55.47
2022-11-25T00:23:01.431Z,55.17
2022-11-25T00:24:33.467Z,55.33
2022-11-25T00:26:11.771Z,54.88
2022-11-25T00:27:43.633Z,54.82
2022-11-25T00:29:15.497Z,54.68
2022-11-25T00:30:47.134Z,54.79
2022-11-25T00:32:18.802Z,54.64
2022-11-25T00:33:50.569Z,54.77
2022-11-25T00:35:22.030Z,55.49
2022-11-25T00:36:53.687Z,54.99
2022-11-25T00:38:25.331Z,55.09
2022-11-25T00:39:56.874Z,54.75
2022-11-25T00:41:46.905Z,55.03
2022-11-25T00:43:37.438Z,55.35
2022-11-25T00:45:09.196Z,54.47
2022-11-25T00:46:40.945Z,54.71
2022-11-25T00:48:12.727Z,54.84
2022-11-25T00:49:47.994Z,54.59
2022-11-25T00:51:19.583Z,55.19
2022-11-25T00:52:51.326Z,54.96
2022-11-25T00:54:22.936Z,55.01
2022-11-25T00:56:13.159Z,55.29
2022-11-25T00:57:44.953Z,55.39
2022-11-25T00:59:16.882Z,55.13
2022-11-25T01:00:48.549Z,54.94
2022-11-25T01:02:20.219Z,55.03
2022-11-25T01:03:52.307Z,54.95
2022-11-25T01:05:23.797Z,55.51
2022-11-25T01:06:56.916Z,55.34
2022-11-25T01:08:31.757Z,55.48
2022-11-25T01:10:03.455Z,54.92
2022-11-25T01:11:35.173Z,55.02
2022-11-25T01:13:06.773Z,55.27
2022-11-25T01:14:38.671Z,55.04
2022-11-25T01:16:11.812Z,55.35
2022-11-25T01:17:43.306Z,55.63
2022-11-25T01:19:15.451Z,54.98
2022-11-25T01:20:47.552Z,54.87
2022-11-25T01:22:19.081Z,54.86
2022-11-25T01:23:50.954Z,55.03
2022-11-25T01:25:22.485Z,55.46
2022-11-25T01:26:54.333Z,55.26
2022-11-25T01:28:25.839Z,55.24
2022-11-25T01:29:57.457Z,55.89
2022-11-25T01:31:33.596Z,55.31
2022-11-25T01:33:05.753Z,55.70
2022-11-25T01:34:37.754Z,55.37
2022-11-25T01:36:13.196Z,55.96
2022-11-25T01:37:44.752Z,55.98
2022-11-25T01:39:17.604Z,55.66
2022-11-25T01:40:49.249Z,55.73
2022-11-25T01:42:21.132Z,55.88
2022-11-25T01:44:09.328Z,55.22
2022-11-25T01:45:40.892Z,55.93
2022-11-25T01:47:16.251Z,55.60
2022-11-25T01:48:51.781Z,55.03
2022-11-25T01:50:23.414Z,55.58
2022-11-25T01:51:58.063Z,55.37
2022-11-25T01:53:29.602Z,55.00
2022-11-25T01:55:05.993Z,55.50
2022-11-25T01:56:39.657Z,55.15
2022-11-25T01:58:18.412Z,55.64
2022-11-25T01:59:50.532Z,55.53
2022-11-25T02:01:22.476Z,55.09
2022-11-25T02:02:54.934Z,55.08
2022-11-25T02:04:28.116Z,55.75
2022-11-25T02:06:18.117Z,55.18
2022-11-25T02:07:49.980Z,55.21
2022-11-25T02:09:21.631Z,55.73
2022-11-25T02:10:54.112Z,56.13
2022-11-25T02:12:25.687Z,56.10
2022-11-25T02:13:57.317Z,55.93
2022-11-25T02:15:28.981Z,56.07
2022-11-25T02:17:01.459Z,56.11
2022-11-25T02:18:33.634Z,55.37
2022-11-25T02:20:09.686Z,55.71
2022-11-25T02:21:42.217Z,55.88
2022-11-25T02:23:34.353Z,56.27
2022-11-25T02:25:24.679Z,56.08
2022-11-25T02:26:56.315Z,55.88
2022-11-25T02:28:28.571Z,55.70
2022-11-25T02:30:00.082Z,56.10
2022-11-25T02:31:31.663Z,55.87
2022-11-25T02:33:03.268Z,56.11
2022-11-25T02:34:35.088Z,55.72
2022-11-25T02:36:07.403Z,55.71
2022-11-25T02:37:39.043Z,55.90
2022-11-25T02:39:10.572Z,55.76
2022-11-25T02:40:44.578Z,55.61
2022-11-25T02:42:16.211Z,55.95
2022-11-25T02:43:47.770Z,55.71
2022-11-25T02:45:20.214Z,55.54
2022-11-25T02:46:52.012Z,55.95
2022-11-25T02:48:39.744Z,55.85
2022-11-25T02:50:15.909Z,55.60
2022-11-25T02:51:47.568Z,55.78
2022-11-25T02:53:19.269Z,56.04
2022-11-25T02:54:50.798Z,55.50
2022-11-25T02:56:23.158Z,55.66
2022-11-25T02:57:54.659Z,55.75
2022-11-25T02:59:26.182Z,55.41
2022-11-25T03:00:58.653Z,55.15
2022-11-25T03:02:30.598Z,55.32
2022-11-25T03:04:02.357Z,55.56
2022-11-25T03:05:34.281Z,55.07
2022-11-25T03:07:06.066Z,55.13
2022-11-25T03:08:38.295Z,55.11
2022-11-25T03:10:09.964Z,55.21
2022-11-25T03:12:00.278Z,55.64
2022-11-25T03:13:32.039Z,55.45
2022-11-25T03:15:03.774Z,55.53
2022-11-25T03:16:35.943Z,55.42
2022-11-25T03:18:07.580Z,54.99
2022-11-25T03:19:39.098Z,55.16
2022-11-25T03:21:10.696Z,55.40
2022-11-25T03:22:42.600Z,54.84
2022-11-25T03:24:14.293Z,55.53
2022-11-25T03:25:45.855Z,54.91
2022-11-25T03:27:17.423Z,54.81
2022-11-25T03:28:48.910Z,54.84
2022-11-25T03:30:21.208Z,55.31
2022-11-25T03:31:52.897Z,55.41
2022-11-25T03:33:24.503Z,54.86
2022-11-25T03:34:56.105Z,54.76
2022-11-25T03:36:27.680Z,55.14
2022-11-25T03:37:59.183Z,54.67
2022-11-25T03:39:30.870Z,55.28
2022-11-25T03:41:02.435Z,55.35
2022-11-25T03:42:34.004Z,54.81
2022-11-25T03:44:05.758Z,54.87
2022-11-25T03:45:37.466Z,55.04
2022-11-25T03:47:09.498Z,55.46
2022-11-25T03:48:41.029Z,55.00
2022-11-25T03:50:13.121Z,55.68
2022-11-25T03:51:45.212Z,54.90
2022-11-25T03:53:16.885Z,55.56
2022-11-25T03:54:48.795Z,55.15
2022-11-25T03:56:20.512Z,55.78
2022-11-25T03:57:52.090Z,54.88
2022-11-25T03:59:23.861Z,55.68
2022-11-25T04:00:55.436Z,55.58
2022-11-25T04:02:27.109Z,55.46
2022-11-25T04:03:58.739Z,55.68
2022-11-25T04:05:30.281Z,54.89
2022-11-25T04:07:01.863Z,54.81
2022-11-25T04:08:33.542Z,55.03
2022-11-25T04:10:05.466Z,54.95
2022-11-25T04:11:55.777Z,55.36
2022-11-25T04:13:27.783Z,55.54
2022-11-25T04:14:59.532Z,55.55
2022-11-25T04:16:31.153Z,55.14
2022-11-25T04:18:02.845Z,55.04
2022-11-25T04:19:34.343Z,55.03
2022-11-25T04:21:06.027Z,55.81
2022-11-25T04:22:37.615Z,55.57
2022-11-25T04:24:09.728Z,55.77
2022-11-25T04:25:41.315Z,55.03
2022-11-25T04:27:12.977Z,54.94
2022-11-25T04:28:44.957Z,55.22
2022-11-25T04:30:16.518Z,55.79
2022-11-25T04:31:48.206Z,55.59
2022-11-25T04:33:19.791Z,55.56
2022-11-25T04:34:51.401Z,55.61
2022-11-25T04:36:23.071Z,55.92
2022-11-25T04:37:54.762Z,55.95
2022-11-25T04:39:26.324Z,55.86
2022-11-25T04:40:57.849Z,55.87
2022-11-25T04:42:32.313Z,55.72
2022-11-25T04:44:04.000Z,55.29
2022-11-25T04:45:58.650Z,55.90
2022-11-25T04:47:27.507Z,55.89
2022-11-25T04:48:59.005Z,55.34
2022-11-25T04:50:30.724Z,55.35
2022-11-25T04:52:02.389Z,55.36
2022-11-25T04:53:34.058Z,55.89
2022-11-25T04:55:06.059Z,56.10
2022-11-25T04:56:37.729Z,56.10
2022-11-25T04:58:10.338Z,55.83
2022-11-25T04:59:42.365Z,55.11
2022-11-25T05:01:13.938Z,55.82
2022-11-25T05:02:45.503Z,55.85
2022-11-25T05:04:17.261Z,55.66
2022-11-25T05:05:49.107Z,55.92
2022-11-25T05:07:21.180Z,55.82
2022-11-25T05:08:52.880Z,55.74
2022-11-25T05:10:24.403Z,55.90
2022-11-25T05:11:56.347Z,55.37
2022-11-25T05:13:28.045Z,55.73
2022-11-25T05:14:59.769Z,55.48
2022-11-25T05:16:31.589Z,56.31
2022-11-25T05:18:03.244Z,55.91
2022-11-25T05:19:36.461Z,55.65
2022-11-25T05:21:08.430Z,56.33
2022-11-25T05:22:40.057Z,55.56
2022-11-25T05:24:11.585Z,55.54
2022-11-25T05:25:43.166Z,56.52
2022-11-25T05:27:14.900Z,56.32
2022-11-25T05:28:46.665Z,55.69
2022-11-25T05:30:18.418Z,56.45
2022-11-25T05:31:49.954Z,55.90
2022-11-25T05:33:21.861Z,56.42
2022-11-25T05:34:53.800Z,55.94
2022-11-25T05:36:25.481Z,55.96
2022-11-25T05:37:57.585Z,55.72
2022-11-25T05:39:29.418Z,56.02
2022-11-25T05:41:01.972Z,56.24
2022-11-25T05:42:33.613Z,55.53
2022-11-25T05:44:05.688Z,56.47
2022-11-25T05:45:38.912Z,56.17
2022-11-25T05:47:10.704Z,55.54
2022-11-25T05:48:42.322Z,56.24
2022-11-25T05:50:13.964Z,56.06
2022-11-25T05:51:45.726Z,56.32
2022-11-25T05:53:20.059Z,56.26
2022-11-25T05:54:56.852Z,55.95
2022-11-25T05:56:28.960Z,56.14
2022-11-25T05:58:00.555Z,56.10
2022-11-25T05:59:32.237Z,56.09
2022-11-25T06:01:10.081Z,55.47
2022-11-25T06:02:41.919Z,56.19
2022-11-25T06:04:14.288Z,55.71
2022-11-25T06:05:46.105Z,55.48
2022-11-25T06:07:17.954Z,55.71
2022-11-25T06:08:49.998Z,55.63
2022-11-25T06:10:21.871Z,55.36
2022-11-25T06:11:54.157Z,55.69
2022-11-25T06:13:26.032Z,55.72
2022-11-25T06:14:57.863Z,55.69
2022-11-25T06:16:30.171Z,55.34
2022-11-25T06:18:02.379Z,55.34
2022-11-25T06:19:34.161Z,55.71
2022-11-25T06:21:06.160Z,55.49
2022-11-25T06:22:38.127Z,55.78
2022-11-25T06:24:09.732Z,55.91
2022-11-25T06:25:41.413Z,55.98
2022-11-25T06:27:13.293Z,56.03
2022-11-25T06:28:45.359Z,56.18
2022-11-25T06:30:17.167Z,55.78
2022-11-25T06:31:51.712Z,56.10
2022-11-25T06:33:23.636Z,55.77
2022-11-25T06:34:55.502Z,56.12
2022-11-25T06:36:27.594Z,56.26
2022-11-25T06:37:59.471Z,56.22
2022-11-25T06:39:31.128Z,55.91
2022-11-25T06:41:03.351Z,56.06
2022-11-25T06:42:35.303Z,56.27
2022-11-25T06:44:06.867Z,56.25
2022-11-25T06:45:38.453Z,55.92
2022-11-25T06:47:10.277Z,55.28
2022-11-25T06:48:42.114Z,55.32
2022-11-25T06:50:13.774Z,55.10
2022-11-25T06:51:45.532Z,55.20
2022-11-25T06:53:21.177Z,55.08
2022-11-25T06:54:55.562Z,54.88
2022-11-25T06:56:28.753Z,54.77
2022-11-25T06:58:27.843Z,55.20
2022-11-25T06:59:52.563Z,55.03
2022-11-25T07:01:25.242Z,55.13
2022-11-25T07:02:56.953Z,56.06
2022-11-25T07:04:28.746Z,55.99
2022-11-25T07:06:00.585Z,55.77
2022-11-25T07:07:32.424Z,55.76
2022-11-25T07:09:04.170Z,55.31
2022-11-25T07:10:35.862Z,55.87
2022-11-25T07:12:07.450Z,55.28
2022-11-25T07:13:39.170Z,55.24
2022-11-25T07:15:10.902Z,55.68
2022-11-25T07:16:43.946Z,55.74
2022-11-25T07:18:15.816Z,55.00
2022-11-25T07:19:47.745Z,55.26
2022-11-25T07:21:21.058Z,54.98
2022-11-25T07:22:52.771Z,55.59
2022-11-25T07:24:24.348Z,55.16
2022-11-25T07:25:56.268Z,55.99
2022-11-25T07:27:29.089Z,55.08
2022-11-25T07:29:01.643Z,55.11
2022-11-25T07:32:24.951Z,55.11
2022-11-25T07:33:57.469Z,55.15
2022-11-25T07:35:29.131Z,55.51
2022-11-25T07:37:01.069Z,55.58
2022-11-25T07:38:33.268Z,55.33
2022-11-25T07:40:05.457Z,55.26
2022-11-25T07:41:37.194Z,55.69
2022-11-25T07:43:08.769Z,55.22
2022-11-25T07:44:40.415Z,55.32
2022-11-25T07:46:13.388Z,55.72
2022-11-25T07:47:44.947Z,55.08
2022-11-25T07:49:17.581Z,55.19
2022-11-25T07:50:50.381Z,55.58
2022-11-25T07:52:22.317Z,55.40
2022-11-25T07:53:54.508Z,55.74
2022-11-25T07:55:26.102Z,55.04
2022-11-25T07:56:57.795Z,55.16
2022-11-25T07:58:29.542Z,54.93
2022-11-25T08:00:01.760Z,54.85
2022-11-25T08:01:33.368Z,55.39
2022-11-25T08:03:05.087Z,54.54
2022-11-25T08:04:37.028Z,54.18
2022-11-25T08:06:16.669Z,53.89
2022-11-25T08:07:48.292Z,54.78
2022-11-25T08:09:21.082Z,54.66
2022-11-25T08:10:52.601Z,54.50
2022-11-25T08:12:24.847Z,54.02
2022-11-25T08:13:56.933Z,54.17
2022-11-25T08:15:28.479Z,54.21
2022-11-25T08:17:00.351Z,53.93
2022-11-25T08:18:32.044Z,53.47
2022-11-25T08:20:03.881Z,53.74
2022-11-25T08:21:35.973Z,53.37
2022-11-25T08:23:07.612Z,53.37
2022-11-25T08:24:39.389Z,53.33
2022-11-25T08:26:12.219Z,53.16
2022-11-25T08:27:44.091Z,53.17
2022-11-25T08:29:16.126Z,52.86
2022-11-25T08:30:47.657Z,53.08
2022-11-25T08:32:19.701Z,52.36
2022-11-25T08:33:51.966Z,52.33
2022-11-25T08:35:24.219Z,52.53
2022-11-25T08:36:55.930Z,52.10
2022-11-25T08:38:27.833Z,51.93
2022-11-25T08:40:00.637Z,51.95
2022-11-25T08:41:33.954Z,51.74
2022-11-25T08:43:05.572Z,51.43
2022-11-25T08:44:37.512Z,51.76
2022-11-25T08:46:10.464Z,51.51
2022-11-25T08:47:42.132Z,51.51
2022-11-25T08:49:14.244Z,51.40
2022-11-25T08:50:47.187Z,51.69
2022-11-25T08:52:18.961Z,51.57
2022-11-25T08:53:53.531Z,51.18
2022-11-25T08:55:27.403Z,51.29
2022-11-25T08:57:00.959Z,51.42
2022-11-25T08:58:32.796Z,51.08
2022-11-25T09:00:07.537Z,51.04
2022-11-25T09:01:39.268Z,51.03
2022-11-25T09:03:11.029Z,50.73
2022-11-25T09:04:42.900Z,50.49
2022-11-25T09:06:15.058Z,50.73
2022-11-25T09:07:46.665Z,50.99
2022-11-25T09:09:18.468Z,50.83
2022-11-25T09:10:50.673Z,50.72
2022-11-25T09:12:22.501Z,50.59
2022-11-25T09:13:54.170Z,50.75
2022-11-25T09:15:25.863Z,50.45
2022-11-25T09:16:57.602Z,50.17
2022-11-25T09:18:30.663Z,49.73
2022-11-25T09:20:02.339Z,49.66
2022-11-25T09:21:35.174Z,49.89
2022-11-25T09:23:07.904Z,49.65
2022-11-25T09:24:39.677Z,49.67
2022-11-25T09:26:17.892Z,49.82
2022-11-25T09:27:49.819Z,49.61
2022-11-25T09:29:21.483Z,50.09
2022-11-25T09:30:53.479Z,49.78
2022-11-25T09:32:25.271Z,50.24
2022-11-25T09:33:57.505Z,50.18
2022-11-25T09:35:29.701Z,49.67
2022-11-25T09:37:01.388Z,49.78
2022-11-25T09:38:35.658Z,50.21
2022-11-25T09:40:11.944Z,49.59
2022-11-25T09:42:09.663Z,49.36
2022-11-25T09:44:22.191Z,49.28
2022-11-25T09:46:14.106Z,49.15
2022-11-25T09:47:48.966Z,48.98
2022-11-25T09:49:41.193Z,49.32
2022-11-25T09:51:18.927Z,49.19
2022-11-25T09:52:54.242Z,49.85
2022-11-25T09:54:46.248Z,49.45
2022-11-25T09:56:38.720Z,49.68
2022-11-25T09:58:19.595Z,49.48
2022-11-25T09:59:55.237Z,49.66
2022-11-25T10:01:27.430Z,49.93
2022-11-25T10:03:00.315Z,49.38
2022-11-25T10:04:40.200Z,49.46
2022-11-25T10:06:12.213Z,49.33
2022-11-25T10:07:44.955Z,49.75
2022-11-25T10:09:17.877Z,49.13
2022-11-25T10:10:57.272Z,49.23
2022-11-25T10:12:29.762Z,49.14
2022-11-25T10:14:03.088Z,49.24
2022-11-25T10:15:36.037Z,49.55
2022-11-25T10:17:11.752Z,49.67
2022-11-25T10:18:45.717Z,49.54
2022-11-25T10:20:30.649Z,49.40
2022-11-25T10:22:05.665Z,49.56
2022-11-25T10:23:38.399Z,49.23
2022-11-25T10:25:13.811Z,49.22
2022-11-25T10:26:46.575Z,49.14
2022-11-25T10:28:19.997Z,48.80
2022-11-25T10:29:56.638Z,48.85
2022-11-25T10:31:33.450Z,48.87
2022-11-25T10:33:05.908Z,49.04
2022-11-25T10:34:48.342Z,48.74
2022-11-25T10:36:35.859Z,48.69
2022-11-25T10:38:08.459Z,48.80
2022-11-25T10:39:40.539Z,48.93
2022-11-25T10:41:13.392Z,48.92
2022-11-25T10:42:45.158Z,48.51
2022-11-25T10:44:33.142Z,48.56
2022-11-25T10:46:17.362Z,48.59
2022-11-25T10:47:53.159Z,48.38
2022-11-25T10:49:25.192Z,48.38
2022-11-25T10:51:15.705Z,48.16
2022-11-25T10:52:55.514Z,48.10
2022-11-25T10:54:28.507Z,48.18
2022-11-25T10:56:03.789Z,48.09
2022-11-25T10:57:35.400Z,48.12
2022-11-25T10:59:13.320Z,47.94
2022-11-25T11:00:45.325Z,47.92
2022-11-25T11:02:16.999Z,47.78
2022-11-25T11:03:52.858Z,47.45
2022-11-25T11:05:29.905Z,47.43
2022-11-25T11:07:07.181Z,47.64
2022-11-25T11:08:39.550Z,47.62
2022-11-25T11:10:18.480Z,47.64
2022-11-25T11:11:50.368Z,47.68
2022-11-25T11:13:27.293Z,48.05
2022-11-25T11:15:31.312Z,47.95
2022-11-25T11:17:03.116Z,47.75
2022-11-25T11:18:38.013Z,48.05
2022-11-25T11:20:09.908Z,47.68
2022-11-25T11:21:41.893Z,47.75
2022-11-25T11:23:14.657Z,47.31
2022-11-25T11:24:46.764Z,47.89
2022-11-25T11:26:22.832Z,47.59
2022-11-25T11:27:54.801Z,47.26
2022-11-25T11:29:26.435Z,47.59
2022-11-25T11:31:01.827Z,47.42
2022-11-25T11:32:33.677Z,47.38
2022-11-25T11:34:08.380Z,47.05
2022-11-25T11:35:59.176Z,46.91
2022-11-25T11:37:39.960Z,47.02
2022-11-25T11:39:25.178Z,47.45
2022-11-25T11:41:00.717Z,46.68
2022-11-25T11:42:39.741Z,47.05
2022-11-25T11:44:15.429Z,46.78
2022-11-25T11:45:48.556Z,46.84
2022-11-25T11:47:29.284Z,47.55
2022-11-25T11:49:03.539Z,47.51
2022-11-25T11:50:35.252Z,46.51
2022-11-25T11:52:11.799Z,46.86
2022-11-25T11:53:44.120Z,46.41
2022-11-25T11:55:36.063Z,46.55
2022-11-25T11:57:10.971Z,46.88
2022-11-25T11:58:42.891Z,47.41
2022-11-25T12:00:15.552Z,47.03
2022-11-25T12:01:55.280Z,46.64
2022-11-25T12:03:27.021Z,47.40
2022-11-25T12:05:01.544Z,46.63
2022-11-25T12:06:33.837Z,46.85
2022-11-25T12:08:11.323Z,47.05
2022-11-25T12:09:44.867Z,47.04
2022-11-25T12:11:39.898Z,47.19
2022-11-25T12:13:11.545Z,47.49
2022-11-25T12:14:44.084Z,47.55
2022-11-25T12:16:17.921Z,47.40
2022-11-25T12:17:52.692Z,46.52
2022-11-25T12:19:33.888Z,46.95
2022-11-25T12:21:06.326Z,46.78
2022-11-25T12:22:49.774Z,47.45
2022-11-25T12:24:33.632Z,47.26
2022-11-25T12:26:07.515Z,47.39
2022-11-25T12:27:40.761Z,47.67
2022-11-25T12:29:13.644Z,47.95
2022-11-25T12:30:51.178Z,47.04
2022-11-25T12:32:28.725Z,47.46
2022-11-25T12:34:02.844Z,47.07
2022-11-25T12:35:40.551Z,46.73
2022-11-25T12:37:15.372Z,46.64
2022-11-25T12:38:57.547Z,46.62
2022-11-25T12:40:29.370Z,47.28
2022-11-25T12:42:01.833Z,46.99
2022-11-25T12:43:34.106Z,46.47
2022-11-25T12:45:06.196Z,47.16
2022-11-25T12:46:45.349Z,47.02
2022-11-25T12:48:21.269Z,47.04
2022-11-25T12:49:53.281Z,47.09
2022-11-25T12:51:29.046Z,46.53
2022-11-25T12:53:02.820Z,47.20
2022-11-25T12:54:37.505Z,46.82
2022-11-25T12:56:12.979Z,47.16
2022-11-25T12:57:49.305Z,47.06
2022-11-25T12:59:40.290Z,47.27
2022-11-25T13:01:11.964Z,47.03
2022-11-25T13:02:53.080Z,47.68
2022-11-25T13:04:40.103Z,47.04
2022-11-25T13:06:23.739Z,47.40
2022-11-25T13:08:12.420Z,47.53
2022-11-25T13:09:44.219Z,47.63
2022-11-25T13:11:29.355Z,47.47
2022-11-25T13:13:07.350Z,47.28
2022-11-25T13:14:48.739Z,47.93
2022-11-25T13:16:21.889Z,47.43
2022-11-25T13:17:58.147Z,47.90
2022-11-25T13:19:29.850Z,47.28
2022-11-25T13:21:08.794Z,47.58
2022-11-25T13:22:40.421Z,47.37
2022-11-25T13:24:26.496Z,47.41
2022-11-25T13:26:17.355Z,47.53
2022-11-25T13:27:49.401Z,47.46
2022-11-25T13:29:27.005Z,47.91
2022-11-25T13:31:14.390Z,47.62
2022-11-25T13:32:46.497Z,47.92
2022-11-25T13:34:20.754Z,47.89
2022-11-25T13:35:52.485Z,47.81
2022-11-25T13:37:37.671Z,47.68
2022-11-25T13:39:14.716Z,47.64
2022-11-25T13:40:49.489Z,47.63
2022-11-25T13:42:23.472Z,48.19
2022-11-25T13:44:02.415Z,48.09
2022-11-25T13:45:35.525Z,47.85
2022-11-25T13:47:26.063Z,48.30
2022-11-25T13:48:57.700Z,48.03
2022-11-25T13:50:48.269Z,48.08
2022-11-25T13:52:24.911Z,48.26
2022-11-25T13:53:58.076Z,48.10
2022-11-25T13:55:34.221Z,48.84
2022-11-25T13:57:11.756Z,48.51
2022-11-25T13:59:03.237Z,48.67
2022-11-25T14:00:34.973Z,48.58
2022-11-25T14:02:25.223Z,48.74
2022-11-25T14:03:57.622Z,48.56
2022-11-25T14:05:29.176Z,48.54
2022-11-25T14:07:21.112Z,48.48
2022-11-25T14:08:58.684Z,48.55
2022-11-25T14:10:50.395Z,48.42
2022-11-25T14:12:24.863Z,48.74
2022-11-25T14:14:15.311Z,48.41
2022-11-25T14:16:05.318Z,48.30
2022-11-25T14:17:42.302Z,49.10
2022-11-25T14:19:50.084Z,48.88
2022-11-25T14:21:33.589Z,48.32
2022-11-25T14:23:17.058Z,48.32
2022-11-25T14:24:52.799Z,48.63
2022-11-25T14:26:49.345Z,48.71
2022-11-25T14:28:22.946Z,48.45
2022-11-25T14:29:55.790Z,48.36
2022-11-25T14:31:31.736Z,49.14
2022-11-25T14:33:03.871Z,48.74
2022-11-25T14:34:56.650Z,49.16
2022-11-25T14:36:30.628Z,49.33
2022-11-25T14:38:17.008Z,48.92
2022-11-25T14:40:06.868Z,49.29
2022-11-25T14:41:39.718Z,48.88
2022-11-25T14:43:15.730Z,48.89
2022-11-25T14:44:51.289Z,48.76
2022-11-25T14:46:23.853Z,48.52
2022-11-25T14:47:56.168Z,48.38
2022-11-25T14:49:55.330Z,48.41
2022-11-25T14:51:34.557Z,48.40
2022-11-25T14:53:09.356Z,48.46
2022-11-25T14:54:42.214Z,48.80
2022-11-25T14:56:13.950Z,49.10
2022-11-25T14:57:46.102Z,48.95
2022-11-25T14:59:18.614Z,48.85
2022-11-25T15:01:00.219Z,48.90
2022-11-25T15:02:33.652Z,48.85
2022-11-25T15:04:05.606Z,48.95
2022-11-25T15:05:37.844Z,48.98
2022-11-25T15:07:15.275Z,49.21
2022-11-25T15:08:53.682Z,49.13
2022-11-25T15:10:36.533Z,48.51
2022-11-25T15:12:18.526Z,48.58
2022-11-25T15:13:56.136Z,48.52
2022-11-25T15:15:28.175Z,49.08
2022-11-25T15:17:00.255Z,48.81
2022-11-25T15:18:33.745Z,48.76
2022-11-25T15:20:11.405Z,49.00
2022-11-25T15:22:14.592Z,48.91
2022-11-25T15:23:36.837Z,49.07
2022-11-25T15:25:10.153Z,48.63
2022-11-25T15:26:41.991Z,48.85
2022-11-25T15:28:15.516Z,49.49
2022-11-25T15:29:47.477Z,49.08
2022-11-25T15:31:20.185Z,48.79
2022-11-25T15:32:52.166Z,48.58
2022-11-25T15:34:23.971Z,49.13
2022-11-25T15:35:55.760Z,48.75
2022-11-25T15:37:28.306Z,49.14
2022-11-25T15:39:18.664Z,49.16
2022-11-25T15:40:56.595Z,48.98
2022-11-25T15:42:28.607Z,48.93
2022-11-25T15:44:01.439Z,48.59
2022-11-25T15:45:38.084Z,48.86
2022-11-25T15:47:18.499Z,48.85
2022-11-25T15:48:50.484Z,48.88
2022-11-25T15:50:23.155Z,49.16
2022-11-25T15:51:57.518Z,48.84
2022-11-25T15:53:33.356Z,49.03
2022-11-25T15:55:08.735Z,48.96
2022-11-25T15:56:42.984Z,48.80
2022-11-25T15:58:18.899Z,48.86
2022-11-25T15:59:51.074Z,48.96
2022-11-25T16:01:23.301Z,48.98
2022-11-25T16:02:55.648Z,49.01
2022-11-25T16:04:27.629Z,48.84
2022-11-25T16:05:59.902Z,49.20
2022-11-25T16:07:31.750Z,49.31
2022-11-25T16:09:04.265Z,49.36
2022-11-25T16:10:42.347Z,49.39
2022-11-25T16:12:15.893Z,49.31
2022-11-25T16:13:47.870Z,49.51
2022-11-25T16:15:19.605Z,49.66
2022-11-25T16:16:51.239Z,49.71
2022-11-25T16:18:39.701Z,49.45
2022-11-25T16:20:19.540Z,49.52
2022-11-25T16:21:55.040Z,49.73
2022-11-25T16:23:26.845Z,49.84
2022-11-25T16:25:02.847Z,49.43
2022-11-25T16:26:34.849Z,49.57
2022-11-25T16:28:06.586Z,49.56
2022-11-25T16:29:39.694Z,49.68
2022-11-25T16:31:16.064Z,49.83
2022-11-25T16:32:48.996Z,49.60
2022-11-25T16:34:21.216Z,50.01
2022-11-25T16:35:53.754Z,49.41
2022-11-25T16:37:25.525Z,49.48
2022-11-25T16:38:58.095Z,49.51
2022-11-25T16:40:30.345Z,49.62
2022-11-25T16:42:04.629Z,50.02
2022-11-25T16:43:37.394Z,49.78
2022-11-25T16:45:19.943Z,49.50
2022-11-25T16:46:51.825Z,49.54
2022-11-25T16:48:24.097Z,49.81
2022-11-25T16:49:55.773Z,49.59
2022-11-25T16:51:27.753Z,49.52
2022-11-25T16:52:59.536Z,49.80
2022-11-25T16:54:32.061Z,49.70
2022-11-25T16:56:03.850Z,49.66
2022-11-25T16:57:35.452Z,50.19
2022-11-25T16:59:07.518Z,49.98
2022-11-25T17:00:39.197Z,49.81
2022-11-25T17:02:18.405Z,49.93
2022-11-25T17:03:50.134Z,50.04
2022-11-25T17:05:24.100Z,50.28
2022-11-25T17:07:31.227Z,49.93
2022-11-25T17:08:50.253Z,49.99
2022-11-25T17:10:22.523Z,50.07
2022-11-25T17:11:55.303Z,50.35
2022-11-25T17:13:27.268Z,49.99
2022-11-25T17:15:00.265Z,50.23
2022-11-25T17:16:33.247Z,50.21
2022-11-25T17:18:05.667Z,50.10
2022-11-25T17:19:37.763Z,50.48
2022-11-25T17:21:12.044Z,50.21
2022-11-25T17:22:44.238Z,50.44
2022-11-25T17:24:17.656Z,50.15
2022-11-25T17:25:49.641Z,50.49
2022-11-25T17:27:25.456Z,50.47
2022-11-25T17:28:57.961Z,49.98
2022-11-25T17:30:29.831Z,50.51
2022-11-25T17:32:02.101Z,50.44
2022-11-25T17:33:34.906Z,49.99
2022-11-25T17:35:12.233Z,50.25
2022-11-25T17:36:44.639Z,50.40
2022-11-25T17:38:20.293Z,50.10
2022-11-25T17:39:55.417Z,50.37
2022-11-25T17:41:27.619Z,50.10
2022-11-25T17:42:59.183Z,50.47
2022-11-25T17:44:31.149Z,50.16
2022-11-25T17:46:03.299Z,50.07
2022-11-25T17:47:35.098Z,50.37
2022-11-25T17:49:08.968Z,50.23
2022-11-25T17:50:41.430Z,50.03
2022-11-25T17:52:13.198Z,50.21
2022-11-25T17:53:45.813Z,50.56
2022-11-25T17:55:19.836Z,50.04
2022-11-25T17:56:52.638Z,50.35
2022-11-25T17:58:24.786Z,50.24
2022-11-25T17:59:56.385Z,50.43
2022-11-25T18:01:28.122Z,50.34
2022-11-25T18:02:59.985Z,50.80
2022-11-25T18:04:32.529Z,50.69
2022-11-25T18:06:05.074Z,50.40
2022-11-25T18:07:37.545Z,50.85
2022-11-25T18:09:09.242Z,50.82
2022-11-25T18:10:40.911Z,51.08
2022-11-25T18:12:31.027Z,50.84
2022-11-25T18:14:02.662Z,50.69
2022-11-25T18:15:34.940Z,51.29
2022-11-25T18:17:07.062Z,51.17
2022-11-25T18:18:39.000Z,50.83
2022-11-25T18:20:21.247Z,50.83
2022-11-25T18:21:54.080Z,51.20
2022-11-25T18:23:25.776Z,51.06
2022-11-25T18:24:57.875Z,50.83
2022-11-25T18:26:29.501Z,50.74
2022-11-25T18:28:01.519Z,51.12
2022-11-25T18:29:33.592Z,51.24
2022-11-25T18:31:05.708Z,51.64
2022-11-25T18:32:37.633Z,51.55
2022-11-25T18:34:13.126Z,50.99
2022-11-25T18:35:45.033Z,51.52
2022-11-25T18:37:16.823Z,51.10
2022-11-25T18:38:49.908Z,51.33
2022-11-25T18:40:21.556Z,51.36
2022-11-25T18:41:58.752Z,51.10
2022-11-25T18:43:30.987Z,51.34
2022-11-25T18:45:03.380Z,51.55
2022-11-25T18:46:36.497Z,51.51
2022-11-25T18:48:17.360Z,51.67
2022-11-25T18:49:55.150Z,51.81
2022-11-25T18:51:28.549Z,51.74
2022-11-25T18:53:01.079Z,51.73
2022-11-25T18:54:32.868Z,51.69
2022-11-25T18:56:04.656Z,51.25
2022-11-25T18:57:36.557Z,51.41
2022-11-25T18:59:09.913Z,52.07
2022-11-25T19:00:41.715Z,51.75
2022-11-25T19:02:17.018Z,52.14
2022-11-25T19:03:49.860Z,51.72
2022-11-25T19:05:22.678Z,51.98
2022-11-25T19:06:54.592Z,52.06
2022-11-25T19:08:26.786Z,51.69
2022-11-25T19:09:58.410Z,51.62
2022-11-25T19:11:32.117Z,52.10
2022-11-25T19:13:05.601Z,51.67
2022-11-25T19:14:38.011Z,52.16
2022-11-25T19:16:12.561Z,52.44
2022-11-25T19:17:44.854Z,52.09
2022-11-25T19:19:16.820Z,52.33
2022-11-25T19:20:49.003Z,52.42
2022-11-25T19:22:22.898Z,52.55
2022-11-25T19:23:55.260Z,52.39
2022-11-25T19:25:27.185Z,52.03
2022-11-25T19:26:58.985Z,51.74
2022-11-25T19:28:30.820Z,52.46
2022-11-25T19:30:03.782Z,51.62
2022-11-25T19:31:35.980Z,52.39
2022-11-25T19:33:09.279Z,52.25
2022-11-25T19:34:44.073Z,52.05
2022-11-25T19:36:21.865Z,51.76
2022-11-25T19:37:54.229Z,52.00
2022-11-25T19:39:25.997Z,52.40
2022-11-25T19:40:57.862Z,52.58
2022-11-25T19:42:32.003Z,52.01
2022-11-25T19:44:03.831Z,52.81
2022-11-25T19:45:35.813Z,52.44
2022-11-25T19:47:15.103Z,52.03
2022-11-25T19:48:47.529Z,52.18
2022-11-25T19:50:23.444Z,52.42
2022-11-25T19:51:55.450Z,52.37
2022-11-25T19:53:33.091Z,51.97
2022-11-25T19:55:15.470Z,52.30
2022-11-25T19:56:47.605Z,52.01
2022-11-25T19:58:19.285Z,52.29
2022-11-25T19:59:51.154Z,52.25
2022-11-25T20:01:24.235Z,52.10
2022-11-25T20:02:56.521Z,52.33
2022-11-25T20:04:28.216Z,52.77
2022-11-25T20:06:00.113Z,52.75
2022-11-25T20:07:32.622Z,52.67
2022-11-25T20:09:07.887Z,52.76
2022-11-25T20:10:39.922Z,52.21
2022-11-25T20:12:17.814Z,52.53
2022-11-25T20:13:50.679Z,52.02
2022-11-25T20:15:22.738Z,52.57
2022-11-25T20:16:54.301Z,52.89
2022-11-25T20:18:26.688Z,52.33